sensor_id;sensor_type;location;lat;lon;timestamp;P1;durP1;ratioP1;P2;durP2;ratioP2
30096;SDS011;16915;51.466;3.610;2023-06-26T00:02:15;15.25;;;4.25;;
30096;SDS011;16915;51.466;3.610;2023-06-26T00:04:41;13.65;;;4.03;;
30096;SDS011;16915;51.466;3.610;2023-06-26T00:07:08;15.10;;;3.72;;
30096;SDS011;16915;51.466;3.610;2023-06-26T00:09:33;13.10;;;4.55;;
30096;SDS011;16915;51.466;3.610;2023-06-26T00:11:59;14.45;;;4.20;;
30096;SDS011;16915;51.466;3.610;2023-06-26T00:14:25;15.55;;;4.63;;
30096;SDS011;16915;51.466;3.610;2023-06-26T00:16:51;11.15;;;3.85;;
30096;SDS011;16915;51.466;3.610;2023-06-26T00:19:17;15.40;;;3.88;;
30096;SDS011;16915;51.466;3.610;2023-06-26T00:21:43;15.85;;;4.05;;
30096;SDS011;16915;51.466;3.610;2023-06-26T00:24:15;17.30;;;4.57;;
30096;SDS011;16915;51.466;3.610;2023-06-26T00:26:41;14.77;;;3.95;;
30096;SDS011;16915;51.466;3.610;2023-06-26T00:29:07;9.88;;;3.78;;
30096;SDS011;16915;51.466;3.610;2023-06-26T00:31:33;15.20;;;4.32;;
30096;SDS011;16915;51.466;3.610;2023-06-26T00:34:00;12.57;;;4.97;;
30096;SDS011;16915;51.466;3.610;2023-06-26T00:36:26;15.82;;;4.22;;
30096;SDS011;16915;51.466;3.610;2023-06-26T00:38:52;15.00;;;4.20;;
30096;SDS011;16915;51.466;3.610;2023-06-26T00:41:17;16.25;;;4.32;;
30096;SDS011;16915;51.466;3.610;2023-06-26T00:43:43;16.45;;;4.55;;
30096;SDS011;16915;51.466;3.610;2023-06-26T00:46:09;14.43;;;4.05;;
30096;SDS011;16915;51.466;3.610;2023-06-26T00:48:37;15.20;;;4.63;;
30096;SDS011;16915;51.466;3.610;2023-06-26T00:51:04;15.60;;;4.22;;
30096;SDS011;16915;51.466;3.610;2023-06-26T00:53:30;20.55;;;4.82;;
30096;SDS011;16915;51.466;3.610;2023-06-26T00:55:56;15.52;;;4.55;;
30096;SDS011;16915;51.466;3.610;2023-06-26T00:58:22;18.08;;;4.22;;
30096;SDS011;16915;51.466;3.610;2023-06-26T01:00:50;17.67;;;4.82;;
30096;SDS011;16915;51.466;3.610;2023-06-26T01:03:16;17.98;;;4.43;;
30096;SDS011;16915;51.466;3.610;2023-06-26T01:05:42;15.07;;;4.60;;
30096;SDS011;16915;51.466;3.610;2023-06-26T01:08:10;21.30;;;4.65;;
30096;SDS011;16915;51.466;3.610;2023-06-26T01:10:38;25.02;;;5.25;;
30096;SDS011;16915;51.466;3.610;2023-06-26T01:13:04;15.85;;;5.38;;
30096;SDS011;16915;51.466;3.610;2023-06-26T01:15:30;24.33;;;4.72;;
30096;SDS011;16915;51.466;3.610;2023-06-26T01:17:57;14.95;;;4.03;;
30096;SDS011;16915;51.466;3.610;2023-06-26T01:20:28;18.83;;;4.53;;
30096;SDS011;16915;51.466;3.610;2023-06-26T01:23:07;17.17;;;4.47;;
30096;SDS011;16915;51.466;3.610;2023-06-26T01:26:15;15.73;;;4.65;;
30096;SDS011;16915;51.466;3.610;2023-06-26T01:28:33;20.48;;;5.05;;
30096;SDS011;16915;51.466;3.610;2023-06-26T01:31:01;19.38;;;5.03;;
30096;SDS011;16915;51.466;3.610;2023-06-26T01:33:28;19.88;;;4.75;;
30096;SDS011;16915;51.466;3.610;2023-06-26T01:35:54;18.40;;;4.70;;
30096;SDS011;16915;51.466;3.610;2023-06-26T01:38:20;19.60;;;4.85;;
30096;SDS011;16915;51.466;3.610;2023-06-26T01:40:48;22.42;;;5.00;;
30096;SDS011;16915;51.466;3.610;2023-06-26T01:43:18;17.15;;;4.28;;
30096;SDS011;16915;51.466;3.610;2023-06-26T01:45:48;16.10;;;5.72;;
30096;SDS011;16915;51.466;3.610;2023-06-26T01:48:16;14.93;;;4.03;;
30096;SDS011;16915;51.466;3.610;2023-06-26T01:50:49;17.33;;;4.30;;
30096;SDS011;16915;51.466;3.610;2023-06-26T01:53:18;18.08;;;4.50;;
30096;SDS011;16915;51.466;3.610;2023-06-26T01:58:14;17.63;;;4.68;;
30096;SDS011;16915;51.466;3.610;2023-06-26T02:00:41;13.80;;;3.55;;
30096;SDS011;16915;51.466;3.610;2023-06-26T02:03:07;17.95;;;4.50;;
30096;SDS011;16915;51.466;3.610;2023-06-26T02:05:33;15.57;;;4.25;;
30096;SDS011;16915;51.466;3.610;2023-06-26T02:07:58;19.95;;;4.28;;
30096;SDS011;16915;51.466;3.610;2023-06-26T02:10:26;10.38;;;3.80;;
30096;SDS011;16915;51.466;3.610;2023-06-26T02:12:51;16.15;;;4.00;;
30096;SDS011;16915;51.466;3.610;2023-06-26T02:15:17;16.05;;;3.92;;
30096;SDS011;16915;51.466;3.610;2023-06-26T02:17:42;19.95;;;4.15;;
30096;SDS011;16915;51.466;3.610;2023-06-26T02:20:13;14.85;;;3.90;;
30096;SDS011;16915;51.466;3.610;2023-06-26T02:22:39;15.13;;;4.35;;
30096;SDS011;16915;51.466;3.610;2023-06-26T02:25:04;23.15;;;4.25;;
30096;SDS011;16915;51.466;3.610;2023-06-26T02:27:30;15.30;;;3.75;;
30096;SDS011;16915;51.466;3.610;2023-06-26T02:29:56;16.10;;;3.80;;
30096;SDS011;16915;51.466;3.610;2023-06-26T02:32:21;13.98;;;3.20;;
30096;SDS011;16915;51.466;3.610;2023-06-26T02:34:49;15.77;;;3.40;;
30096;SDS011;16915;51.466;3.610;2023-06-26T02:37:16;14.70;;;3.75;;
30096;SDS011;16915;51.466;3.610;2023-06-26T02:39:42;13.73;;;3.30;;
30096;SDS011;16915;51.466;3.610;2023-06-26T02:42:08;17.80;;;3.85;;
30096;SDS011;16915;51.466;3.610;2023-06-26T02:44:34;8.80;;;3.22;;
30096;SDS011;16915;51.466;3.610;2023-06-26T02:46:59;16.83;;;3.20;;
30096;SDS011;16915;51.466;3.610;2023-06-26T02:49:25;15.23;;;3.22;;
30096;SDS011;16915;51.466;3.610;2023-06-26T02:51:50;14.35;;;3.40;;
30096;SDS011;16915;51.466;3.610;2023-06-26T02:54:16;12.25;;;2.40;;
30096;SDS011;16915;51.466;3.610;2023-06-26T02:56:41;8.65;;;1.98;;
30096;SDS011;16915;51.466;3.610;2023-06-26T02:59:07;8.48;;;2.10;;
30096;SDS011;16915;51.466;3.610;2023-06-26T03:01:33;13.00;;;2.22;;
30096;SDS011;16915;51.466;3.610;2023-06-26T03:03:59;7.20;;;1.77;;
30096;SDS011;16915;51.466;3.610;2023-06-26T03:06:25;10.35;;;2.10;;
30096;SDS011;16915;51.466;3.610;2023-06-26T03:08:52;10.82;;;1.38;;
30096;SDS011;16915;51.466;3.610;2023-06-26T03:11:18;8.40;;;1.83;;
30096;SDS011;16915;51.466;3.610;2023-06-26T03:13:44;5.38;;;1.13;;
30096;SDS011;16915;51.466;3.610;2023-06-26T03:16:09;5.22;;;1.27;;
30096;SDS011;16915;51.466;3.610;2023-06-26T03:18:35;4.95;;;1.52;;
30096;SDS011;16915;51.466;3.610;2023-06-26T03:21:01;3.95;;;0.93;;
30096;SDS011;16915;51.466;3.610;2023-06-26T03:23:26;2.65;;;0.90;;
30096;SDS011;16915;51.466;3.610;2023-06-26T03:25:52;5.75;;;1.02;;
30096;SDS011;16915;51.466;3.610;2023-06-26T03:28:18;4.93;;;1.20;;
30096;SDS011;16915;51.466;3.610;2023-06-26T03:30:44;7.95;;;1.80;;
30096;SDS011;16915;51.466;3.610;2023-06-26T03:33:10;5.97;;;0.80;;
30096;SDS011;16915;51.466;3.610;2023-06-26T03:35:35;5.93;;;1.30;;
30096;SDS011;16915;51.466;3.610;2023-06-26T03:38:03;3.50;;;1.30;;
30096;SDS011;16915;51.466;3.610;2023-06-26T03:40:29;5.80;;;1.02;;
30096;SDS011;16915;51.466;3.610;2023-06-26T03:42:54;7.35;;;0.85;;
30096;SDS011;16915;51.466;3.610;2023-06-26T03:45:20;6.82;;;1.30;;
30096;SDS011;16915;51.466;3.610;2023-06-26T03:47:46;6.57;;;1.15;;
30096;SDS011;16915;51.466;3.610;2023-06-26T03:50:18;8.55;;;2.05;;
30096;SDS011;16915;51.466;3.610;2023-06-26T03:52:44;6.50;;;1.10;;
30096;SDS011;16915;51.466;3.610;2023-06-26T03:55:09;5.97;;;1.02;;
30096;SDS011;16915;51.466;3.610;2023-06-26T03:57:35;4.57;;;1.40;;
30096;SDS011;16915;51.466;3.610;2023-06-26T04:00:01;12.70;;;1.45;;
30096;SDS011;16915;51.466;3.610;2023-06-26T04:02:33;6.18;;;1.13;;
30096;SDS011;16915;51.466;3.610;2023-06-26T04:04:58;6.82;;;1.15;;
30096;SDS011;16915;51.466;3.610;2023-06-26T04:07:25;3.70;;;1.13;;
30096;SDS011;16915;51.466;3.610;2023-06-26T04:09:50;6.88;;;1.08;;
30096;SDS011;16915;51.466;3.610;2023-06-26T04:12:16;5.78;;;1.08;;
30096;SDS011;16915;51.466;3.610;2023-06-26T04:14:42;7.28;;;1.17;;
30096;SDS011;16915;51.466;3.610;2023-06-26T04:17:07;6.63;;;0.98;;
30096;SDS011;16915;51.466;3.610;2023-06-26T04:19:33;8.38;;;1.15;;
30096;SDS011;16915;51.466;3.610;2023-06-26T04:22:00;6.25;;;1.30;;
30096;SDS011;16915;51.466;3.610;2023-06-26T04:24:26;9.55;;;1.50;;
30096;SDS011;16915;51.466;3.610;2023-06-26T04:26:52;4.97;;;1.17;;
30096;SDS011;16915;51.466;3.610;2023-06-26T04:29:17;8.60;;;1.20;;
30096;SDS011;16915;51.466;3.610;2023-06-26T04:31:43;6.95;;;1.40;;
30096;SDS011;16915;51.466;3.610;2023-06-26T04:34:11;3.72;;;1.02;;
30096;SDS011;16915;51.466;3.610;2023-06-26T04:36:38;7.25;;;1.30;;
30096;SDS011;16915;51.466;3.610;2023-06-26T04:39:04;4.72;;;1.20;;
30096;SDS011;16915;51.466;3.610;2023-06-26T04:41:30;4.93;;;1.20;;
30096;SDS011;16915;51.466;3.610;2023-06-26T04:43:55;7.90;;;1.00;;
30096;SDS011;16915;51.466;3.610;2023-06-26T04:46:21;8.23;;;1.20;;
30096;SDS011;16915;51.466;3.610;2023-06-26T04:48:46;4.10;;;0.90;;
30096;SDS011;16915;51.466;3.610;2023-06-26T04:51:12;5.72;;;1.00;;
30096;SDS011;16915;51.466;3.610;2023-06-26T04:53:38;3.13;;;0.95;;
30096;SDS011;16915;51.466;3.610;2023-06-26T04:56:03;3.42;;;0.82;;
30096;SDS011;16915;51.466;3.610;2023-06-26T04:58:29;6.85;;;1.38;;
30096;SDS011;16915;51.466;3.610;2023-06-26T05:00:55;4.38;;;0.70;;
30096;SDS011;16915;51.466;3.610;2023-06-26T05:03:21;8.00;;;1.02;;
30096;SDS011;16915;51.466;3.610;2023-06-26T05:05:47;3.03;;;1.05;;
30096;SDS011;16915;51.466;3.610;2023-06-26T05:08:16;5.55;;;0.90;;
30096;SDS011;16915;51.466;3.610;2023-06-26T05:10:43;4.68;;;1.10;;
30096;SDS011;16915;51.466;3.610;2023-06-26T05:13:10;4.05;;;0.70;;
30096;SDS011;16915;51.466;3.610;2023-06-26T05:15:36;8.38;;;1.05;;
30096;SDS011;16915;51.466;3.610;2023-06-26T05:18:02;2.97;;;0.88;;
30096;SDS011;16915;51.466;3.610;2023-06-26T05:20:27;6.43;;;1.00;;
30096;SDS011;16915;51.466;3.610;2023-06-26T05:22:53;4.57;;;0.60;;
30096;SDS011;16915;51.466;3.610;2023-06-26T05:25:19;1.88;;;0.57;;
30096;SDS011;16915;51.466;3.610;2023-06-26T05:27:46;2.33;;;0.90;;
30096;SDS011;16915;51.466;3.610;2023-06-26T05:30:13;2.05;;;0.80;;
30096;SDS011;16915;51.466;3.610;2023-06-26T05:32:38;2.20;;;0.77;;
30096;SDS011;16915;51.466;3.610;2023-06-26T05:35:05;4.85;;;0.80;;
30096;SDS011;16915;51.466;3.610;2023-06-26T05:37:33;2.15;;;0.90;;
30096;SDS011;16915;51.466;3.610;2023-06-26T05:39:59;2.55;;;0.80;;
30096;SDS011;16915;51.466;3.610;2023-06-26T05:42:26;5.45;;;0.85;;
30096;SDS011;16915;51.466;3.610;2023-06-26T05:44:53;3.35;;;0.70;;
30096;SDS011;16915;51.466;3.610;2023-06-26T05:47:18;3.08;;;0.65;;
30096;SDS011;16915;51.466;3.610;2023-06-26T05:49:44;3.33;;;1.02;;
30096;SDS011;16915;51.466;3.610;2023-06-26T05:52:10;3.45;;;0.60;;
30096;SDS011;16915;51.466;3.610;2023-06-26T05:54:36;2.42;;;0.60;;
30096;SDS011;16915;51.466;3.610;2023-06-26T05:57:02;5.70;;;0.73;;
30096;SDS011;16915;51.466;3.610;2023-06-26T05:59:29;1.65;;;0.60;;
30096;SDS011;16915;51.466;3.610;2023-06-26T06:01:56;3.53;;;0.50;;
30096;SDS011;16915;51.466;3.610;2023-06-26T06:04:22;3.38;;;0.70;;
30096;SDS011;16915;51.466;3.610;2023-06-26T06:06:47;3.67;;;0.77;;
30096;SDS011;16915;51.466;3.610;2023-06-26T06:09:13;4.32;;;0.70;;
30096;SDS011;16915;51.466;3.610;2023-06-26T06:11:39;2.97;;;0.65;;
30096;SDS011;16915;51.466;3.610;2023-06-26T06:14:04;3.58;;;0.68;;
30096;SDS011;16915;51.466;3.610;2023-06-26T06:16:30;7.32;;;0.90;;
30096;SDS011;16915;51.466;3.610;2023-06-26T06:18:55;7.10;;;0.90;;
30096;SDS011;16915;51.466;3.610;2023-06-26T06:21:21;2.25;;;0.60;;
30096;SDS011;16915;51.466;3.610;2023-06-26T06:23:47;3.28;;;0.68;;
30096;SDS011;16915;51.466;3.610;2023-06-26T06:26:12;4.57;;;0.95;;
30096;SDS011;16915;51.466;3.610;2023-06-26T06:28:38;4.40;;;0.90;;
30096;SDS011;16915;51.466;3.610;2023-06-26T06:31:04;2.63;;;0.70;;
30096;SDS011;16915;51.466;3.610;2023-06-26T06:33:30;4.22;;;1.30;;
30096;SDS011;16915;51.466;3.610;2023-06-26T06:35:56;2.42;;;0.90;;
30096;SDS011;16915;51.466;3.610;2023-06-26T06:38:21;3.92;;;0.90;;
30096;SDS011;16915;51.466;3.610;2023-06-26T06:40:47;4.50;;;0.90;;
30096;SDS011;16915;51.466;3.610;2023-06-26T06:43:13;2.35;;;0.77;;
30096;SDS011;16915;51.466;3.610;2023-06-26T06:45:39;4.22;;;0.80;;
30096;SDS011;16915;51.466;3.610;2023-06-26T06:48:04;2.20;;;0.70;;
30096;SDS011;16915;51.466;3.610;2023-06-26T06:50:30;6.72;;;1.00;;
30096;SDS011;16915;51.466;3.610;2023-06-26T06:52:56;3.67;;;0.98;;
30096;SDS011;16915;51.466;3.610;2023-06-26T06:55:22;2.60;;;0.80;;
30096;SDS011;16915;51.466;3.610;2023-06-26T06:57:48;3.45;;;0.82;;
30096;SDS011;16915;51.466;3.610;2023-06-26T07:00:15;4.47;;;0.80;;
30096;SDS011;16915;51.466;3.610;2023-06-26T07:02:44;4.78;;;0.75;;
30096;SDS011;16915;51.466;3.610;2023-06-26T07:05:11;5.30;;;1.23;;
30096;SDS011;16915;51.466;3.610;2023-06-26T07:07:37;1.85;;;0.70;;
30096;SDS011;16915;51.466;3.610;2023-06-26T07:10:04;7.50;;;1.02;;
30096;SDS011;16915;51.466;3.610;2023-06-26T07:12:31;6.10;;;1.08;;
30096;SDS011;16915;51.466;3.610;2023-06-26T07:14:57;5.65;;;1.00;;
30096;SDS011;16915;51.466;3.610;2023-06-26T07:17:23;3.05;;;0.70;;
30096;SDS011;16915;51.466;3.610;2023-06-26T07:19:49;2.97;;;0.73;;
30096;SDS011;16915;51.466;3.610;2023-06-26T07:22:15;4.47;;;0.88;;
30096;SDS011;16915;51.466;3.610;2023-06-26T07:24:40;2.85;;;0.98;;
30096;SDS011;16915;51.466;3.610;2023-06-26T07:27:06;2.63;;;0.73;;
30096;SDS011;16915;51.466;3.610;2023-06-26T07:29:31;3.33;;;1.00;;
30096;SDS011;16915;51.466;3.610;2023-06-26T07:31:58;5.18;;;1.13;;
30096;SDS011;16915;51.466;3.610;2023-06-26T07:34:23;3.20;;;0.80;;
30096;SDS011;16915;51.466;3.610;2023-06-26T07:36:49;7.85;;;1.15;;
30096;SDS011;16915;51.466;3.610;2023-06-26T07:39:14;4.78;;;0.98;;
30096;SDS011;16915;51.466;3.610;2023-06-26T07:41:40;4.65;;;0.90;;
30096;SDS011;16915;51.466;3.610;2023-06-26T07:44:06;3.42;;;1.10;;
30096;SDS011;16915;51.466;3.610;2023-06-26T07:46:31;1.33;;;0.95;;
30096;SDS011;16915;51.466;3.610;2023-06-26T07:48:57;5.93;;;1.00;;
30096;SDS011;16915;51.466;3.610;2023-06-26T07:51:22;3.17;;;0.88;;
30096;SDS011;16915;51.466;3.610;2023-06-26T07:53:49;6.28;;;1.25;;
30096;SDS011;16915;51.466;3.610;2023-06-26T07:56:14;3.50;;;1.00;;
30096;SDS011;16915;51.466;3.610;2023-06-26T07:58:40;3.22;;;0.90;;
30096;SDS011;16915;51.466;3.610;2023-06-26T08:01:05;6.15;;;1.20;;
30096;SDS011;16915;51.466;3.610;2023-06-26T08:03:31;6.13;;;1.27;;
30096;SDS011;16915;51.466;3.610;2023-06-26T08:05:56;4.13;;;1.10;;
30096;SDS011;16915;51.466;3.610;2023-06-26T08:08:22;5.88;;;1.42;;
30096;SDS011;16915;51.466;3.610;2023-06-26T08:10:47;5.63;;;1.05;;
30096;SDS011;16915;51.466;3.610;2023-06-26T08:13:13;4.78;;;1.10;;
30096;SDS011;16915;51.466;3.610;2023-06-26T08:15:39;6.05;;;1.10;;
30096;SDS011;16915;51.466;3.610;2023-06-26T08:18:04;6.00;;;1.33;;
30096;SDS011;16915;51.466;3.610;2023-06-26T08:20:30;4.55;;;1.17;;
30096;SDS011;16915;51.466;3.610;2023-06-26T08:22:55;4.03;;;1.10;;
30096;SDS011;16915;51.466;3.610;2023-06-26T08:25:21;4.50;;;0.93;;
30096;SDS011;16915;51.466;3.610;2023-06-26T08:27:46;7.78;;;1.00;;
30096;SDS011;16915;51.466;3.610;2023-06-26T08:30:12;4.72;;;1.00;;
30096;SDS011;16915;51.466;3.610;2023-06-26T08:32:39;6.05;;;1.30;;
30096;SDS011;16915;51.466;3.610;2023-06-26T08:35:05;6.38;;;1.20;;
30096;SDS011;16915;51.466;3.610;2023-06-26T08:37:32;5.07;;;1.15;;
30096;SDS011;16915;51.466;3.610;2023-06-26T08:39:58;3.35;;;1.23;;
30096;SDS011;16915;51.466;3.610;2023-06-26T08:42:26;5.15;;;1.42;;
30096;SDS011;16915;51.466;3.610;2023-06-26T08:44:52;4.65;;;1.55;;
30096;SDS011;16915;51.466;3.610;2023-06-26T08:47:18;3.80;;;0.98;;
30096;SDS011;16915;51.466;3.610;2023-06-26T08:49:56;8.55;;;1.20;;
30096;SDS011;16915;51.466;3.610;2023-06-26T08:52:23;5.65;;;1.42;;
30096;SDS011;16915;51.466;3.610;2023-06-26T08:54:56;4.03;;;1.25;;
30096;SDS011;16915;51.466;3.610;2023-06-26T08:57:23;4.28;;;1.35;;
30096;SDS011;16915;51.466;3.610;2023-06-26T08:59:51;7.00;;;1.58;;
30096;SDS011;16915;51.466;3.610;2023-06-26T09:02:17;5.45;;;1.48;;
30096;SDS011;16915;51.466;3.610;2023-06-26T09:04:45;5.28;;;1.33;;
30096;SDS011;16915;51.466;3.610;2023-06-26T09:07:12;6.22;;;1.38;;
30096;SDS011;16915;51.466;3.610;2023-06-26T09:09:38;4.93;;;1.20;;
30096;SDS011;16915;51.466;3.610;2023-06-26T09:12:04;4.55;;;1.42;;
30096;SDS011;16915;51.466;3.610;2023-06-26T09:14:30;5.90;;;2.00;;
30096;SDS011;16915;51.466;3.610;2023-06-26T09:16:55;4.72;;;1.00;;
30096;SDS011;16915;51.466;3.610;2023-06-26T09:19:21;3.70;;;1.27;;
30096;SDS011;16915;51.466;3.610;2023-06-26T09:21:48;6.28;;;0.98;;
30096;SDS011;16915;51.466;3.610;2023-06-26T09:24:16;4.88;;;1.50;;
30096;SDS011;16915;51.466;3.610;2023-06-26T09:26:41;2.83;;;0.70;;
30096;SDS011;16915;51.466;3.610;2023-06-26T09:29:08;6.70;;;1.23;;
30096;SDS011;16915;51.466;3.610;2023-06-26T09:31:37;3.40;;;1.08;;
30096;SDS011;16915;51.466;3.610;2023-06-26T09:34:04;4.40;;;1.27;;
30096;SDS011;16915;51.466;3.610;2023-06-26T09:36:30;4.20;;;0.88;;
30096;SDS011;16915;51.466;3.610;2023-06-26T09:39:04;2.47;;;1.00;;
30096;SDS011;16915;51.466;3.610;2023-06-26T09:41:35;8.35;;;1.10;;
30096;SDS011;16915;51.466;3.610;2023-06-26T09:44:03;6.07;;;1.35;;
30096;SDS011;16915;51.466;3.610;2023-06-26T09:46:30;10.73;;;1.52;;
30096;SDS011;16915;51.466;3.610;2023-06-26T09:49:01;6.03;;;1.50;;
30096;SDS011;16915;51.466;3.610;2023-06-26T09:51:33;6.65;;;1.70;;
30096;SDS011;16915;51.466;3.610;2023-06-26T09:53:59;6.18;;;1.20;;
30096;SDS011;16915;51.466;3.610;2023-06-26T09:56:25;7.03;;;1.73;;
30096;SDS011;16915;51.466;3.610;2023-06-26T09:58:55;3.47;;;1.33;;
30096;SDS011;16915;51.466;3.610;2023-06-26T10:01:22;4.35;;;1.10;;
30096;SDS011;16915;51.466;3.610;2023-06-26T10:03:48;4.68;;;1.60;;
30096;SDS011;16915;51.466;3.610;2023-06-26T10:06:14;5.38;;;1.40;;
30096;SDS011;16915;51.466;3.610;2023-06-26T10:08:42;4.60;;;1.30;;
30096;SDS011;16915;51.466;3.610;2023-06-26T10:11:08;5.78;;;1.13;;
30096;SDS011;16915;51.466;3.610;2023-06-26T10:13:42;10.82;;;2.03;;
30096;SDS011;16915;51.466;3.610;2023-06-26T10:16:11;5.30;;;1.05;;
30096;SDS011;16915;51.466;3.610;2023-06-26T10:18:38;6.40;;;1.55;;
30096;SDS011;16915;51.466;3.610;2023-06-26T10:21:04;7.90;;;1.20;;
30096;SDS011;16915;51.466;3.610;2023-06-26T10:23:31;10.57;;;1.30;;
30096;SDS011;16915;51.466;3.610;2023-06-26T10:26:00;6.38;;;1.30;;
30096;SDS011;16915;51.466;3.610;2023-06-26T10:28:26;6.68;;;1.30;;
30096;SDS011;16915;51.466;3.610;2023-06-26T10:30:54;4.20;;;1.40;;
30096;SDS011;16915;51.466;3.610;2023-06-26T10:33:22;4.15;;;1.20;;
30096;SDS011;16915;51.466;3.610;2023-06-26T10:35:47;3.38;;;1.20;;
30096;SDS011;16915;51.466;3.610;2023-06-26T10:38:14;3.47;;;1.10;;
30096;SDS011;16915;51.466;3.610;2023-06-26T10:40:43;4.13;;;1.20;;
30096;SDS011;16915;51.466;3.610;2023-06-26T10:43:15;4.53;;;1.10;;
30096;SDS011;16915;51.466;3.610;2023-06-26T10:48:13;3.85;;;1.25;;
30096;SDS011;16915;51.466;3.610;2023-06-26T10:50:39;7.65;;;1.60;;
30096;SDS011;16915;51.466;3.610;2023-06-26T10:55:56;2.47;;;1.08;;
30096;SDS011;16915;51.466;3.610;2023-06-26T10:58:34;8.82;;;1.48;;
30096;SDS011;16915;51.466;3.610;2023-06-26T11:03:44;3.22;;;1.38;;
30096;SDS011;16915;51.466;3.610;2023-06-26T11:06:16;6.60;;;1.48;;
30096;SDS011;16915;51.466;3.610;2023-06-26T11:08:49;5.47;;;1.58;;
30096;SDS011;16915;51.466;3.610;2023-06-26T11:11:19;5.55;;;1.50;;
30096;SDS011;16915;51.466;3.610;2023-06-26T11:13:46;7.85;;;1.52;;
30096;SDS011;16915;51.466;3.610;2023-06-26T11:16:13;5.38;;;1.98;;
30096;SDS011;16915;51.466;3.610;2023-06-26T11:18:42;3.35;;;1.52;;
30096;SDS011;16915;51.466;3.610;2023-06-26T11:21:10;3.80;;;1.20;;
30096;SDS011;16915;51.466;3.610;2023-06-26T11:23:39;5.47;;;1.30;;
30096;SDS011;16915;51.466;3.610;2023-06-26T11:26:12;3.38;;;1.17;;
30096;SDS011;16915;51.466;3.610;2023-06-26T11:28:46;3.38;;;1.35;;
30096;SDS011;16915;51.466;3.610;2023-06-26T11:31:29;5.53;;;1.30;;
30096;SDS011;16915;51.466;3.610;2023-06-26T11:33:56;3.35;;;1.35;;
30096;SDS011;16915;51.466;3.610;2023-06-26T11:36:25;2.72;;;1.27;;
30096;SDS011;16915;51.466;3.610;2023-06-26T11:41:24;5.50;;;1.40;;
30096;SDS011;16915;51.466;3.610;2023-06-26T11:43:51;4.15;;;1.65;;
30096;SDS011;16915;51.466;3.610;2023-06-26T11:46:17;4.00;;;1.13;;
30096;SDS011;16915;51.466;3.610;2023-06-26T11:48:44;5.20;;;1.83;;
30096;SDS011;16915;51.466;3.610;2023-06-26T11:51:12;5.72;;;1.52;;
30096;SDS011;16915;51.466;3.610;2023-06-26T11:53:39;4.35;;;1.10;;
30096;SDS011;16915;51.466;3.610;2023-06-26T11:56:07;3.25;;;1.30;;
30096;SDS011;16915;51.466;3.610;2023-06-26T12:01:22;4.05;;;1.50;;
30096;SDS011;16915;51.466;3.610;2023-06-26T12:03:49;5.57;;;1.52;;
30096;SDS011;16915;51.466;3.610;2023-06-26T12:06:15;5.88;;;1.40;;
30096;SDS011;16915;51.466;3.610;2023-06-26T12:08:41;5.57;;;1.33;;
30096;SDS011;16915;51.466;3.610;2023-06-26T12:11:07;4.50;;;1.88;;
30096;SDS011;16915;51.466;3.610;2023-06-26T12:13:33;6.18;;;1.58;;
30096;SDS011;16915;51.466;3.610;2023-06-26T12:15:59;3.92;;;1.50;;
30096;SDS011;16915;51.466;3.610;2023-06-26T12:18:25;6.68;;;1.55;;
30096;SDS011;16915;51.466;3.610;2023-06-26T12:20:51;4.30;;;1.73;;
30096;SDS011;16915;51.466;3.610;2023-06-26T12:23:17;4.90;;;1.38;;
30096;SDS011;16915;51.466;3.610;2023-06-26T12:25:43;6.20;;;1.63;;
30096;SDS011;16915;51.466;3.610;2023-06-26T12:28:16;5.63;;;1.42;;
30096;SDS011;16915;51.466;3.610;2023-06-26T12:30:47;9.25;;;1.48;;
30096;SDS011;16915;51.466;3.610;2023-06-26T12:33:45;3.70;;;1.45;;
30096;SDS011;16915;51.466;3.610;2023-06-26T12:36:11;5.00;;;1.40;;
30096;SDS011;16915;51.466;3.610;2023-06-26T12:38:38;4.00;;;1.75;;
30096;SDS011;16915;51.466;3.610;2023-06-26T12:41:04;7.63;;;1.85;;
30096;SDS011;16915;51.466;3.610;2023-06-26T12:43:29;7.32;;;1.90;;
30096;SDS011;16915;51.466;3.610;2023-06-26T12:45:55;5.03;;;1.30;;
30096;SDS011;16915;51.466;3.610;2023-06-26T12:48:21;4.22;;;1.17;;
30096;SDS011;16915;51.466;3.610;2023-06-26T12:51:07;4.93;;;1.10;;
30096;SDS011;16915;51.466;3.610;2023-06-26T12:53:34;3.17;;;1.13;;
30096;SDS011;16915;51.466;3.610;2023-06-26T12:55:59;5.35;;;1.65;;
30096;SDS011;16915;51.466;3.610;2023-06-26T12:58:25;6.30;;;1.42;;
30096;SDS011;16915;51.466;3.610;2023-06-26T13:00:50;3.05;;;1.40;;
30096;SDS011;16915;51.466;3.610;2023-06-26T13:03:18;5.30;;;1.23;;
30096;SDS011;16915;51.466;3.610;2023-06-26T13:05:45;5.45;;;1.83;;
30096;SDS011;16915;51.466;3.610;2023-06-26T13:08:12;3.80;;;1.38;;
30096;SDS011;16915;51.466;3.610;2023-06-26T13:10:37;3.85;;;1.25;;
30096;SDS011;16915;51.466;3.610;2023-06-26T13:13:04;3.25;;;1.13;;
30096;SDS011;16915;51.466;3.610;2023-06-26T13:15:30;7.22;;;1.30;;
30096;SDS011;16915;51.466;3.610;2023-06-26T13:17:55;5.45;;;1.40;;
30096;SDS011;16915;51.466;3.610;2023-06-26T13:20:21;4.28;;;1.70;;
30096;SDS011;16915;51.466;3.610;2023-06-26T13:22:47;6.68;;;1.50;;
30096;SDS011;16915;51.466;3.610;2023-06-26T13:25:12;4.72;;;1.38;;
30096;SDS011;16915;51.466;3.610;2023-06-26T13:27:38;3.92;;;0.98;;
30096;SDS011;16915;51.466;3.610;2023-06-26T13:30:04;1.77;;;0.88;;
30096;SDS011;16915;51.466;3.610;2023-06-26T13:32:30;3.17;;;1.23;;
30096;SDS011;16915;51.466;3.610;2023-06-26T13:34:55;2.33;;;1.30;;
30096;SDS011;16915;51.466;3.610;2023-06-26T13:37:22;2.53;;;0.90;;
30096;SDS011;16915;51.466;3.610;2023-06-26T13:39:47;7.35;;;1.30;;
30096;SDS011;16915;51.466;3.610;2023-06-26T13:42:15;4.38;;;0.93;;
30096;SDS011;16915;51.466;3.610;2023-06-26T13:44:41;4.85;;;1.50;;
30096;SDS011;16915;51.466;3.610;2023-06-26T13:47:07;6.88;;;1.20;;
30096;SDS011;16915;51.466;3.610;2023-06-26T13:49:33;3.95;;;1.60;;
30096;SDS011;16915;51.466;3.610;2023-06-26T13:51:58;3.53;;;1.10;;
30096;SDS011;16915;51.466;3.610;2023-06-26T13:54:24;2.75;;;1.10;;
30096;SDS011;16915;51.466;3.610;2023-06-26T13:56:49;5.10;;;1.30;;
30096;SDS011;16915;51.466;3.610;2023-06-26T13:59:15;2.63;;;1.20;;
30096;SDS011;16915;51.466;3.610;2023-06-26T14:01:40;5.57;;;1.27;;
30096;SDS011;16915;51.466;3.610;2023-06-26T14:04:08;3.88;;;1.23;;
30096;SDS011;16915;51.466;3.610;2023-06-26T14:06:34;2.58;;;1.10;;
30096;SDS011;16915;51.466;3.610;2023-06-26T14:09:00;2.17;;;1.08;;
30096;SDS011;16915;51.466;3.610;2023-06-26T14:11:25;2.10;;;0.80;;
30096;SDS011;16915;51.466;3.610;2023-06-26T14:13:51;4.63;;;1.10;;
30096;SDS011;16915;51.466;3.610;2023-06-26T14:16:17;11.18;;;1.50;;
30096;SDS011;16915;51.466;3.610;2023-06-26T14:18:43;2.75;;;1.10;;
30096;SDS011;16915;51.466;3.610;2023-06-26T14:21:09;2.97;;;1.15;;
30096;SDS011;16915;51.466;3.610;2023-06-26T14:23:35;2.33;;;1.30;;
30096;SDS011;16915;51.466;3.610;2023-06-26T14:26:00;2.88;;;1.10;;
30096;SDS011;16915;51.466;3.610;2023-06-26T14:28:26;2.72;;;0.93;;
30096;SDS011;16915;51.466;3.610;2023-06-26T14:30:51;2.70;;;1.23;;
30096;SDS011;16915;51.466;3.610;2023-06-26T14:33:17;3.30;;;1.20;;
30096;SDS011;16915;51.466;3.610;2023-06-26T14:35:43;4.15;;;1.17;;
30096;SDS011;16915;51.466;3.610;2023-06-26T14:38:08;2.47;;;1.10;;
30096;SDS011;16915;51.466;3.610;2023-06-26T14:40:34;2.40;;;1.00;;
30096;SDS011;16915;51.466;3.610;2023-06-26T14:42:59;2.80;;;0.90;;
30096;SDS011;16915;51.466;3.610;2023-06-26T14:45:25;2.97;;;1.05;;
30096;SDS011;16915;51.466;3.610;2023-06-26T14:47:50;3.97;;;1.20;;
30096;SDS011;16915;51.466;3.610;2023-06-26T14:50:16;2.25;;;0.95;;
30096;SDS011;16915;51.466;3.610;2023-06-26T14:52:41;6.53;;;1.52;;
30096;SDS011;16915;51.466;3.610;2023-06-26T14:55:07;5.40;;;1.25;;
30096;SDS011;16915;51.466;3.610;2023-06-26T14:57:33;2.17;;;1.30;;
30096;SDS011;16915;51.466;3.610;2023-06-26T14:59:59;6.05;;;1.25;;